createdAt,value
2022-08-21T00:04:20.884Z,28.30
2022-08-21T00:10:26.140Z,26.23
2022-08-21T00:16:28.394Z,51.70
2022-08-21T00:22:30.425Z,63.20
2022-08-21T00:28:32.810Z,55.10
2022-08-21T00:34:34.878Z,67.47
2022-08-21T00:40:52.209Z,84.33
2022-08-21T00:46:54.342Z,33.50
2022-08-21T00:52:59.533Z,28.57
2022-08-21T00:59:03.612Z,24.37
2022-08-21T01:05:07.238Z,17.80
2022-08-21T01:11:09.322Z,40.07
2022-08-21T01:17:14.546Z,17.63
2022-08-21T01:23:16.641Z,17.47
2022-08-21T01:29:58.939Z,22.93
2022-08-21T01:36:01.156Z,17.43
2022-08-21T01:42:03.879Z,14.67
2022-08-21T01:48:06.195Z,72.93
2022-08-21T01:54:08.603Z,18.97
2022-08-21T02:00:16.123Z,14.10
2022-08-21T02:06:19.029Z,23.13
2022-08-21T02:12:21.264Z,16.47
2022-08-21T02:18:23.325Z,26.30
2022-08-21T02:24:25.355Z,30.63
2022-08-21T02:30:35.445Z,19.30
2022-08-21T02:36:37.455Z,17.43
2022-08-21T02:42:40.987Z,12.03
2022-08-21T02:48:43.601Z,12.17
2022-08-21T02:54:45.593Z,10.47
2022-08-21T03:00:47.742Z,15.30
2022-08-21T03:06:49.718Z,68.07
2022-08-21T03:12:52.812Z,41.10
2022-08-21T03:18:54.786Z,11.17
2022-08-21T03:24:58.144Z,10.33
2022-08-21T03:31:00.129Z,10.40
2022-08-21T03:37:02.287Z,11.10
2022-08-21T03:43:04.375Z,10.13
2022-08-21T03:49:06.679Z,10.50
2022-08-21T03:55:08.636Z,9.40
2022-08-21T04:01:10.671Z,10.60
2022-08-21T04:07:12.633Z,7.13
2022-08-21T04:13:15.906Z,6.47
2022-08-21T04:19:17.970Z,7.00
2022-08-21T04:25:23.585Z,6.87
2022-08-21T04:31:26.237Z,7.63
2022-08-21T04:37:28.409Z,7.60
2022-08-21T04:43:30.480Z,9.40
2022-08-21T04:49:32.445Z,9.27
2022-08-21T04:55:35.002Z,8.50
2022-08-21T05:01:40.279Z,7.63
2022-08-21T05:07:45.537Z,7.90
2022-08-21T05:13:47.966Z,14.37
2022-08-21T05:19:57.033Z,25.00
2022-08-21T05:25:59.359Z,27.17
2022-08-21T05:32:01.796Z,18.97
2022-08-21T05:38:05.798Z,8.13
2022-08-21T05:44:16.860Z,9.67
2022-08-21T05:50:19.007Z,9.10
2022-08-21T05:56:20.995Z,7.50
2022-08-21T06:02:23.392Z,9.20
2022-08-21T06:08:26.105Z,7.60
2022-08-21T06:14:28.115Z,8.93
2022-08-21T06:20:30.723Z,7.37
2022-08-21T06:26:33.121Z,10.90
2022-08-21T06:32:36.646Z,8.03
2022-08-21T06:38:39.622Z,8.57
2022-08-21T06:44:41.615Z,8.30
2022-08-21T06:50:43.664Z,7.43
2022-08-21T06:56:45.652Z,9.23
2022-08-21T07:02:47.783Z,8.00
2022-08-21T07:08:49.830Z,8.77
2022-08-21T07:14:51.982Z,9.57
2022-08-21T07:20:54.109Z,8.87
2022-08-21T07:26:56.596Z,8.43
2022-08-21T07:32:58.850Z,9.33
2022-08-21T07:39:01.584Z,9.33
2022-08-21T07:45:03.829Z,14.47
2022-08-21T07:51:13.124Z,11.83
2022-08-21T07:57:15.198Z,14.20
2022-08-21T08:03:28.556Z,14.30
2022-08-21T08:09:31.283Z,15.07
2022-08-21T08:15:37.392Z,14.30
2022-08-21T08:21:39.750Z,15.10
2022-08-21T08:27:42.415Z,17.60
2022-08-21T08:33:44.419Z,13.23
2022-08-21T08:39:47.189Z,14.00
2022-08-21T08:45:55.685Z,13.40
2022-08-21T08:52:29.699Z,12.37
2022-08-21T08:58:38.222Z,12.60
2022-08-21T09:04:41.147Z,10.13
2022-08-21T09:11:29.495Z,9.83
2022-08-21T09:17:59.192Z,9.60
2022-08-21T09:24:11.783Z,10.13
2022-08-21T09:30:14.175Z,10.00
2022-08-21T09:36:33.042Z,7.40
2022-08-21T09:42:35.013Z,6.83
2022-08-21T09:49:06.848Z,10.53
2022-08-21T09:56:06.651Z,7.63
2022-08-21T10:02:27.269Z,7.43
2022-08-21T10:08:30.325Z,8.83
2022-08-21T10:15:10.155Z,6.30
2022-08-21T10:21:31.643Z,7.53
2022-08-21T10:27:57.798Z,7.03
2022-08-21T10:34:14.553Z,9.93
2022-08-21T10:40:44.600Z,6.57
2022-08-21T10:47:01.643Z,5.67
2022-08-21T10:53:48.480Z,5.90
2022-08-21T11:00:15.813Z,7.87
2022-08-21T11:06:26.098Z,8.07
2022-08-21T11:12:51.882Z,8.30
2022-08-21T11:19:21.046Z,9.07
2022-08-21T11:25:40.483Z,9.83
2022-08-21T11:32:23.083Z,13.63
2022-08-21T11:38:44.167Z,12.40
2022-08-21T11:45:22.901Z,8.40
2022-08-21T11:51:53.580Z,8.30
2022-08-21T11:58:23.636Z,6.53
2022-08-21T12:04:43.768Z,27.40
2022-08-21T12:11:08.155Z,7.57
2022-08-21T12:17:35.314Z,6.63
2022-08-21T12:24:17.280Z,5.17
2022-08-21T12:30:28.055Z,12.10
2022-08-21T12:37:04.479Z,5.90
2022-08-21T12:43:08.250Z,3.17
2022-08-21T12:49:16.464Z,5.13
2022-08-21T12:55:30.961Z,2.93
2022-08-21T13:01:41.995Z,7.17
2022-08-21T13:07:49.424Z,2.63
2022-08-21T13:13:54.497Z,5.77
2022-08-21T13:20:24.368Z,4.23
2022-08-21T13:26:26.359Z,4.40
2022-08-21T13:32:32.167Z,9.23
2022-08-21T13:38:37.522Z,3.50
2022-08-21T13:44:44.199Z,3.27
2022-08-21T13:50:46.874Z,2.90
2022-08-21T13:56:49.089Z,3.23
2022-08-21T14:02:54.200Z,2.70
2022-08-21T14:09:16.336Z,5.07
2022-08-21T14:15:29.357Z,2.30
2022-08-21T14:21:44.504Z,5.83
2022-08-21T14:27:53.617Z,2.37
2022-08-21T14:33:56.402Z,3.60
2022-08-21T14:39:58.495Z,2.53
2022-08-21T14:46:02.239Z,5.43
2022-08-21T14:52:04.763Z,3.37
2022-08-21T14:58:06.802Z,4.47
2022-08-21T15:04:08.775Z,4.07
2022-08-21T15:10:12.015Z,3.00
2022-08-21T15:16:14.773Z,1.93
2022-08-21T15:22:19.233Z,3.33
2022-08-21T15:28:31.592Z,2.93
2022-08-21T15:34:33.871Z,3.43
2022-08-21T15:40:38.333Z,2.90
2022-08-21T15:46:41.787Z,1.60
2022-08-21T15:52:43.786Z,4.40
2022-08-21T15:58:45.812Z,2.20
2022-08-21T16:04:48.054Z,3.00
2022-08-21T16:10:50.680Z,4.33
2022-08-21T16:16:53.977Z,3.40
2022-08-21T16:22:58.614Z,3.23
2022-08-21T16:29:03.206Z,2.73
2022-08-21T16:35:06.200Z,2.40
2022-08-21T16:41:17.351Z,1.77
2022-08-21T16:47:26.742Z,2.70
2022-08-21T16:53:29.465Z,4.00
2022-08-21T16:59:31.475Z,2.70
2022-08-21T17:05:33.458Z,2.50
2022-08-21T17:11:45.979Z,3.07
2022-08-21T17:17:48.047Z,11.43
2022-08-21T17:23:50.248Z,3.97
2022-08-21T17:29:52.827Z,1.83
2022-08-21T17:35:55.057Z,5.03
2022-08-21T17:42:01.453Z,3.20
2022-08-21T17:48:04.257Z,3.77
2022-08-21T17:54:06.692Z,4.60
2022-08-21T18:00:12.873Z,3.13
2022-08-21T18:06:17.970Z,4.03
2022-08-21T18:12:20.260Z,5.03
2022-08-21T18:18:25.301Z,4.70
2022-08-21T18:24:27.411Z,2.87
2022-08-21T18:30:29.455Z,4.63
2022-08-21T18:36:31.478Z,3.17
2022-08-21T18:42:55.276Z,3.23
2022-08-21T18:48:57.890Z,2.23
2022-08-21T18:55:05.933Z,2.13
2022-08-21T19:01:13.477Z,5.60
2022-08-21T19:07:18.653Z,3.70
2022-08-21T19:13:22.222Z,2.53
2022-08-21T19:19:25.035Z,6.37
2022-08-21T19:25:33.222Z,3.73
2022-08-21T19:31:43.507Z,9.63
2022-08-21T19:37:46.007Z,3.07
2022-08-21T19:43:55.432Z,3.10
2022-08-21T19:50:00.654Z,2.90
2022-08-21T19:56:05.696Z,2.53
2022-08-21T20:02:10.762Z,5.13
2022-08-21T20:08:20.130Z,6.60
2022-08-21T20:14:30.525Z,4.30
2022-08-21T20:20:32.878Z,3.50
2022-08-21T20:26:35.568Z,7.40
2022-08-21T20:32:38.320Z,2.53
2022-08-21T20:38:40.399Z,3.57
2022-08-21T20:44:46.467Z,3.10
2022-08-21T20:50:55.356Z,3.03
2022-08-21T20:57:06.098Z,3.23
2022-08-21T21:03:33.923Z,4.60
2022-08-21T21:09:44.387Z,4.87
2022-08-21T21:15:51.798Z,5.03
2022-08-21T21:22:25.051Z,8.10
2022-08-21T21:28:48.763Z,4.63
2022-08-21T21:34:51.118Z,3.90
2022-08-21T21:41:31.576Z,6.63
2022-08-21T21:47:55.169Z,3.70
2022-08-21T21:54:37.724Z,4.77
2022-08-21T22:00:51.994Z,16.33
2022-08-21T22:07:25.480Z,4.87
2022-08-21T22:13:48.418Z,3.23
2022-08-21T22:19:52.803Z,3.33
2022-08-21T22:26:04.875Z,6.20
2022-08-21T22:32:10.538Z,4.00
2022-08-21T22:38:36.188Z,3.47
2022-08-21T22:44:54.195Z,4.43
2022-08-21T22:51:32.375Z,2.37
2022-08-21T22:57:35.897Z,3.33
2022-08-21T23:04:10.388Z,4.37
2022-08-21T23:10:32.125Z,4.73
2022-08-21T23:16:58.272Z,4.83
2022-08-21T23:23:29.953Z,5.83
2022-08-21T23:29:51.757Z,5.23
2022-08-21T23:36:55.892Z,5.27
2022-08-21T23:43:25.996Z,5.07
2022-08-21T23:49:54.593Z,2.73
2022-08-21T23:56:58.470Z,2.67
